Wetterstation Vordersexau
Wetterdaten: Woche 05.01.15 - 11.01.15 (KW2)
Datum Zeit Temp. A. Feuchte A. Luftdruck Regen Wind Richtung Taupunkt Windchill Windben
05.01.2015 00:00 -1,6 C 87 % 1008,2 hPa 0,0 l/m 0,0 km/h O-NO -3,5 C -1,6 C 0,0 km/h
05.01.2015 01:00 -1,8 C 87 % 1007,7 hPa 0,0 l/m 0,4 km/h O-SO -3,7 C -1,8 C 0,4 km/h
05.01.2015 02:00 -2,1 C 87 % 1007,4 hPa 0,0 l/m 0,0 km/h O-SO -4,0 C -2,1 C 0,0 km/h
05.01.2015 03:00 -3,0 C 87 % 1006,9 hPa 0,0 l/m 0,0 km/h O-SO -4,9 C -3,0 C 0,0 km/h
05.01.2015 04:00 -3,2 C 87 % 1006,2 hPa 0,0 l/m 0,0 km/h O-SO -5,0 C -3,2 C 0,0 km/h
05.01.2015 05:00 -3,5 C 87 % 1005,9 hPa 0,0 l/m 0,0 km/h O-SO -5,3 C -3,5 C 0,0 km/h
05.01.2015 06:00 -3,9 C 87 % 1005,8 hPa 0,0 l/m 0,0 km/h O-SO -5,7 C -3,9 C 0,0 km/h
05.01.2015 07:00 -4,4 C 87 % 1005,7 hPa 0,0 l/m 0,0 km/h O -6,2 C -4,4 C 0,0 km/h
05.01.2015 08:00 -3,9 C 87 % 1005,7 hPa 0,0 l/m 0,0 km/h NO -5,7 C -3,9 C 0,0 km/h
05.01.2015 09:00 3,8 C 87 % 1005,5 hPa 0,0 l/m 0,0 km/h SO 1,8 C 3,8 C 0,0 km/h
05.01.2015 10:00 6,5 C 82 % 1004,8 hPa 0,0 l/m 5,2 km/h NO 3,7 C 6,5 C 2,9 km/h
05.01.2015 11:00 10,0 C 69 % 1004,1 hPa 0,0 l/m 0,0 km/h SO 4,6 C 10,0 C 0,0 km/h
05.01.2015 12:00 9,8 C 62 % 1003,1 hPa 0,0 l/m 0,0 km/h W 2,9 C 9,8 C 0,0 km/h
05.01.2015 13:00 9,1 C 58 % 1002,4 hPa 0,0 l/m 0,0 km/h W 1,3 C 9,1 C 0,0 km/h
05.01.2015 14:00 11,9 C 53 % 1001,9 hPa 0,0 l/m 0,0 km/h W 2,6 C 11,9 C 0,0 km/h
05.01.2015 15:00 12,3 C 51 % 1001,5 hPa 0,0 l/m 0,0 km/h S-SO 2,5 C 12,3 C 0,0 km/h
05.01.2015 16:00 4,3 C 63 % 1001,1 hPa 0,0 l/m 0,0 km/h O-SO -2,1 C 4,3 C 0,0 km/h
05.01.2015 17:00 -0,1 C 77 % 1001,1 hPa 0,0 l/m 0,0 km/h O -3,6 C -0,1 C 0,0 km/h
05.01.2015 18:00 -1,4 C 81 % 1001,2 hPa 0,0 l/m 0,0 km/h O-SO -4,2 C -1,4 C 0,0 km/h
05.01.2015 19:00 -1,9 C 84 % 1000,5 hPa 0,0 l/m 0,0 km/h O-SO -4,2 C -1,9 C 0,0 km/h
05.01.2015 20:00 -2,6 C 85 % 1000,5 hPa 0,0 l/m 0,0 km/h O-NO -4,8 C -2,6 C 0,0 km/h
05.01.2015 21:00 -2,4 C 86 % 1000,0 hPa 0,0 l/m 0,0 km/h O-SO -4,4 C -2,4 C 0,0 km/h
05.01.2015 22:00 -2,7 C 86 % 999,5 hPa 0,0 l/m 0,0 km/h O-SO -4,7 C -2,7 C 0,0 km/h
05.01.2015 23:00 -3,3 C 87 % 999,1 hPa 0,0 l/m 0,0 km/h O-SO -5,1 C -3,3 C 0,0 km/h
06.01.2015 00:00 -3,2 C 87 % 998,7 hPa 0,0 l/m 0,0 km/h O-SO -5,0 C -3,2 C 0,0 km/h
06.01.2015 01:00 -3,5 C 87 % 997,8 hPa 0,0 l/m 0,0 km/h O-SO -5,3 C -3,5 C 0,0 km/h
06.01.2015 02:00 -3,5 C 87 % 997,6 hPa 0,0 l/m 0,0 km/h O-SO -5,3 C -3,5 C 0,0 km/h
06.01.2015 03:00 -3,6 C 87 % 996,6 hPa 0,0 l/m 0,0 km/h O-SO -5,4 C -3,6 C 0,0 km/h
06.01.2015 04:00 -3,7 C 88 % 996,1 hPa 0,0 l/m 0,0 km/h NO -5,4 C -3,7 C 0,0 km/h
06.01.2015 05:00 -4,5 C 87 % 995,7 hPa 0,0 l/m 0,0 km/h NO -6,3 C -4,5 C 0,0 km/h
06.01.2015 06:00 -4,7 C 87 % 995,7 hPa 0,0 l/m 0,0 km/h NO -6,5 C -4,7 C 0,0 km/h
06.01.2015 07:00 -5,0 C 87 % 995,5 hPa 0,0 l/m 0,0 km/h O-NO -6,8 C -5,0 C 0,0 km/h
06.01.2015 08:00 -4,7 C 87 % 995,6 hPa 0,0 l/m 0,0 km/h W-NW -6,5 C -4,7 C 0,0 km/h
06.01.2015 09:00 3,4 C 85 % 995,6 hPa 0,0 l/m 0,0 km/h W 1,1 C 3,4 C 0,0 km/h
06.01.2015 10:00 6,9 C 75 % 995,6 hPa 0,0 l/m 0,0 km/h W 2,8 C 6,9 C 0,0 km/h
06.01.2015 11:00 8,3 C 66 % 995,2 hPa 0,0 l/m 0,0 km/h W 2,3 C 8,3 C 0,0 km/h
06.01.2015 12:00 7,5 C 65 % 994,7 hPa 0,0 l/m 0,0 km/h W 1,4 C 7,5 C 0,0 km/h
06.01.2015 13:00 8,4 C 62 % 994,0 hPa 0,0 l/m 0,0 km/h W-NW 1,6 C 8,4 C 0,0 km/h
06.01.2015 14:00 8,8 C 61 % 994,0 hPa 0,0 l/m 0,0 km/h W-NW 1,7 C 8,8 C 0,0 km/h
06.01.2015 15:00 7,3 C 64 % 994,3 hPa 0,0 l/m 0,0 km/h W-NW 1,0 C 7,3 C 0,0 km/h
06.01.2015 16:00 3,9 C 69 % 994,5 hPa 0,0 l/m 0,0 km/h W-NW -1,3 C 3,9 C 0,0 km/h
06.01.2015 17:00 -0,1 C 79 % 995,0 hPa 0,0 l/m 0,0 km/h W-NW -3,3 C -0,1 C 0,0 km/h
06.01.2015 18:00 -1,2 C 82 % 995,6 hPa 0,0 l/m 0,0 km/h SO -3,9 C -1,2 C 0,0 km/h
06.01.2015 19:00 -1,2 C 85 % 996,1 hPa 0,0 l/m 0,0 km/h O-SO -3,4 C -1,2 C 0,0 km/h
06.01.2015 20:00 -1,8 C 85 % 996,4 hPa 0,0 l/m 0,0 km/h O-SO -4,0 C -1,8 C 0,0 km/h
06.01.2015 21:00 -1,8 C 86 % 997,1 hPa 0,0 l/m 2,2 km/h SO -3,8 C -1,8 C 2,2 km/h
06.01.2015 22:00 -2,4 C 87 % 998,0 hPa 0,0 l/m 0,0 km/h O-SO -4,3 C -2,4 C 0,0 km/h
06.01.2015 23:00 -1,4 C 87 % 997,4 hPa 0,0 l/m 0,0 km/h O-SO -3,3 C -1,4 C 0,0 km/h
07.01.2015 00:00 -0,5 C 87 % 998,1 hPa 0,0 l/m 0,0 km/h O-SO -2,4 C -0,5 C 0,0 km/h
07.01.2015 01:00 0,1 C 87 % 998,6 hPa 0,0 l/m 0,0 km/h NO -1,8 C 0,1 C 0,0 km/h
07.01.2015 02:00 0,7 C 87 % 999,3 hPa 0,0 l/m 0,0 km/h O-SO -1,2 C 0,7 C 0,0 km/h
07.01.2015 03:00 0,9 C 87 % 999,6 hPa 0,0 l/m 0,0 km/h O-SO -1,0 C 0,9 C 0,0 km/h
07.01.2015 04:00 0,8 C 87 % 999,3 hPa 0,0 l/m 0,0 km/h O-SO -1,1 C 0,8 C 0,0 km/h
07.01.2015 05:00 1,1 C 87 % 999,8 hPa 0,0 l/m 0,0 km/h O-SO -0,8 C 1,1 C 0,0 km/h
07.01.2015 06:00 1,4 C 87 % 1000,4 hPa 0,0 l/m 0,0 km/h O-SO -0,5 C 1,4 C 0,0 km/h
07.01.2015 07:00 1,3 C 87 % 1001,1 hPa 0,4 l/m 0,0 km/h N-NW -0,6 C 1,3 C 0,0 km/h
07.01.2015 08:00 1,5 C 87 % 1001,3 hPa 0,0 l/m 0,0 km/h N-NW -0,4 C 1,5 C 0,0 km/h
07.01.2015 09:00 2,3 C 87 % 1001,7 hPa 0,4 l/m 0,0 km/h N-NW 0,4 C 2,3 C 0,0 km/h
07.01.2015 10:00 2,9 C 87 % 1002,0 hPa 0,0 l/m 0,0 km/h S-SO 1,0 C 2,9 C 0,0 km/h
07.01.2015 11:00 4,3 C 87 % 1028,8 hPa 0,0 l/m 0,0 km/h N 2,3 C 4,3 C 0,0 km/h
08.01.2015 04:00 7,2 C 85 % 1000,8 hPa 1,5 l/m 4,7 km/h W 4,9 C 7,2 C 4,7 km/h
08.01.2015 05:00 7,6 C 84 % 1000,7 hPa 0,0 l/m 2,5 km/h SW 5,1 C 7,6 C 2,5 km/h
08.01.2015 06:00 7,6 C 83 % 1027,6 hPa 0,0 l/m 7,2 km/h W-SW 4,9 C 7,0 C 7,2 km/h
08.01.2015 07:00 7,9 C 82 % 1027,6 hPa 0,0 l/m 4,7 km/h SW 5,0 C 7,9 C 4,7 km/h
08.01.2015 08:00 8,2 C 81 % 1027,7 hPa 0,0 l/m 17,5 km/h SW 5,1 C 1,9 C 9,7 km/h
08.01.2015 09:00 8,6 C 80 % 1027,4 hPa 0,0 l/m 16,8 km/h SW 5,3 C 2,7 C 9,4 km/h
08.01.2015 10:00 9,3 C 76 % 1027,3 hPa 0,0 l/m 1,9 km/h S-SW 5,3 C 9,3 C 1,1 km/h
08.01.2015 11:00 9,5 C 74 % 1027,2 hPa 0,0 l/m 14,9 km/h S-SW 5,1 C 4,6 C 8,3 km/h
08.01.2015 12:00 9,6 C 77 % 1026,4 hPa 0,0 l/m 24,0 km/h SW 5,8 C 1,6 C 13,3 km/h
08.01.2015 13:00 9,3 C 78 % 1026,3 hPa 0,0 l/m 36,9 km/h W 5,7 C -1,7 C 20,5 km/h
08.01.2015 14:00 9,9 C 77 % 1026,0 hPa 0,0 l/m 16,8 km/h SW 6,1 C 4,3 C 9,4 km/h
08.01.2015 15:00 10,3 C 74 % 1026,1 hPa 0,0 l/m 22,7 km/h SW 5,9 C 2,9 C 12,6 km/h
08.01.2015 16:00 10,1 C 74 % 1025,9 hPa 0,0 l/m 23,3 km/h W-SW 5,7 C 2,4 C 13,0 km/h
08.01.2015 17:00 9,8 C 76 % 1025,8 hPa 0,0 l/m 27,9 km/h SW 5,8 C 0,8 C 15,5 km/h
08.01.2015 18:00 9,6 C 76 % 1026,7 hPa 0,0 l/m 35,6 km/h SW 5,6 C -1,0 C 19,8 km/h
08.01.2015 19:00 9,4 C 79 % 1027,8 hPa 0,0 l/m 36,9 km/h W 5,9 C -1,5 C 20,5 km/h
08.01.2015 20:00 8,5 C 85 % 1029,6 hPa 0,0 l/m 37,6 km/h SW 6,1 C -2,9 C 20,9 km/h
08.01.2015 21:00 8,2 C 86 % 1030,3 hPa 0,0 l/m 16,2 km/h W 6,0 C 2,4 C 9,0 km/h
08.01.2015 22:00 8,1 C 86 % 1031,2 hPa 0,0 l/m 4,5 km/h W-SW 5,9 C 8,1 C 2,5 km/h
08.01.2015 23:00 7,3 C 87 % 1031,8 hPa 0,0 l/m 12,3 km/h SW 5,3 C 3,2 C 6,8 km/h
09.01.2015 00:00 7,1 C 86 % 1032,6 hPa 0,4 l/m 18,1 km/h SW 4,9 C 0,3 C 10,1 km/h
09.01.2015 01:00 6,5 C 86 % 1032,6 hPa 0,0 l/m 53,8 km/h SW 4,3 C -8,1 C 29,9 km/h
09.01.2015 02:00 6,6 C 87 % 1032,3 hPa 0,0 l/m 11,7 km/h W 4,6 C 2,8 C 6,5 km/h
09.01.2015 03:00 5,9 C 85 % 1032,0 hPa 0,0 l/m 0,0 km/h SW 3,6 C 5,9 C 0,0 km/h
09.01.2015 04:00 7,4 C 81 % 1032,3 hPa 0,0 l/m 14,9 km/h SW 4,4 C 2,0 C 8,3 km/h
09.01.2015 05:00 7,4 C 81 % 1031,4 hPa 0,0 l/m 18,8 km/h SW 4,4 C 0,4 C 10,4 km/h
09.01.2015 06:00 8,0 C 78 % 1030,3 hPa 0,0 l/m 38,2 km/h S-SW 4,4 C -3,8 C 21,2 km/h
09.01.2015 07:00 8,2 C 79 % 1029,6 hPa 0,0 l/m 17,5 km/h W-SW 4,8 C 1,9 C 9,7 km/h
09.01.2015 08:00 7,9 C 80 % 1028,7 hPa 0,0 l/m 20,1 km/h S-SO 4,7 C 0,5 C 11,2 km/h
09.01.2015 09:00 7,9 C 80 % 1028,2 hPa 0,0 l/m 25,9 km/h W-SW 4,7 C -1,3 C 14,4 km/h
09.01.2015 10:00 8,4 C 76 % 1029,0 hPa 0,0 l/m 36,9 km/h W-SW 4,4 C -3,0 C 20,5 km/h
09.01.2015 11:00 7,9 C 79 % 1028,6 hPa 0,0 l/m 18,8 km/h W 4,5 C 1,0 C 10,4 km/h
09.01.2015 12:00 9,1 C 75 % 1027,8 hPa 0,0 l/m 24,1 km/h SW 4,9 C 0,9 C 24,1 km/h
09.01.2015 13:00 8,8 C 79 % 1026,8 hPa 0,0 l/m 20,2 km/h W-SW 5,4 C 1,7 C 20,2 km/h
09.01.2015 14:00 8,9 C 81 % 1026,1 hPa 0,0 l/m 46,7 km/h W-SW 5,8 C -3,6 C 13,0 km/h
09.01.2015 15:00 9,3 C 83 % 1026,8 hPa 0,4 l/m 76,8 km/h SW 6,6 C -5,0 C 14,4 km/h
09.01.2015 16:00 9,5 C 83 % 1025,1 hPa 0,0 l/m 44,7 km/h S-SW 6,8 C -2,5 C 24,8 km/h
09.01.2015 17:00 9,7 C 84 % 1025,6 hPa 0,0 l/m 32,4 km/h W-SW 7,1 C -0,3 C 18,0 km/h
09.01.2015 18:00 10,3 C 84 % 1024,6 hPa 0,0 l/m 31,8 km/h S-SW 7,7 C 0,7 C 17,6 km/h
09.01.2015 19:00 10,9 C 83 % 1024,3 hPa 0,0 l/m 53,1 km/h SW 8,1 C -1,2 C 29,5 km/h
09.01.2015 20:00 10,3 C 86 % 1024,5 hPa 0,0 l/m 33,0 km/h W-SW 8,1 C 0,5 C 18,4 km/h
09.01.2015 21:00 11,1 C 86 % 1024,1 hPa 0,0 l/m 22,0 km/h S-SW 8,8 C 4,1 C 12,2 km/h
09.01.2015 22:00 11,4 C 85 % 1022,7 hPa 0,0 l/m 76,0 km/h S-SW 9,0 C -1,6 C 25,9 km/h
09.01.2015 23:00 11,9 C 84 % 1023,6 hPa 0,0 l/m 86,0 km/h SW 9,3 C -0,9 C 30,6 km/h
10.01.2015 00:00 12,1 C 84 % 1023,6 hPa 0,0 l/m 57,0 km/h SW 9,5 C 0,4 C 15,8 km/h
10.01.2015 01:00 12,2 C 84 % 1023,2 hPa 0,0 l/m 25,3 km/h W-SW 9,6 C 4,7 C 14,0 km/h
10.01.2015 02:00 12,4 C 84 % 1023,2 hPa 0,0 l/m 28,5 km/h W-SW 9,8 C 4,3 C 15,8 km/h
10.01.2015 03:00 12,6 C 84 % 1023,5 hPa 0,0 l/m 18,8 km/h W-SW 10,0 C 7,0 C 10,4 km/h
10.01.2015 04:00 12,4 C 84 % 1023,3 hPa 0,0 l/m 24,6 km/h SW 9,8 C 5,2 C 13,7 km/h
10.01.2015 05:00 12,4 C 85 % 1022,7 hPa 0,0 l/m 22,0 km/h SW 9,9 C 5,8 C 12,2 km/h
10.01.2015 06:00 12,6 C 84 % 1022,6 hPa 0,0 l/m 46,7 km/h W-SW 10,0 C 2,0 C 25,9 km/h
10.01.2015 07:00 12,7 C 84 % 1022,1 hPa 0,0 l/m 50,5 km/h W-SW 10,1 C 1,8 C 28,1 km/h
10.01.2015 08:00 12,9 C 83 % 1022,1 hPa 0,0 l/m 19,4 km/h W-SW 10,1 C 7,2 C 10,8 km/h
10.01.2015 09:00 13,8 C 81 % 1021,5 hPa 0,0 l/m 21,4 km/h W 10,6 C 7,8 C 11,9 km/h
10.01.2015 10:00 13,8 C 80 % 1020,6 hPa 0,0 l/m 56,4 km/h W 10,4 C 3,1 C 31,3 km/h
10.01.2015 11:00 15,9 C 72 % 1019,9 hPa 0,0 l/m 43,4 km/h W 10,9 C 7,3 C 24,1 km/h
10.01.2015 12:00 15,6 C 73 % 1019,5 hPa 0,0 l/m 43,4 km/h SW 10,8 C 6,8 C 24,1 km/h
10.01.2015 13:00 15,9 C 74 % 1018,7 hPa 0,0 l/m 18,8 km/h W 11,3 C 11,2 C 10,4 km/h
10.01.2015 14:00 14,2 C 78 % 1018,7 hPa 0,0 l/m 24,0 km/h W-SW 10,4 C 7,7 C 13,3 km/h
10.01.2015 15:00 13,6 C 77 % 1018,4 hPa 0,0 l/m 24,6 km/h W 9,6 C 6,8 C 13,7 km/h
10.01.2015 16:00 13,3 C 76 % 1018,1 hPa 0,0 l/m 20,7 km/h W-SW 9,2 C 7,4 C 11,5 km/h
10.01.2015 17:00 12,8 C 77 % 1018,4 hPa 0,0 l/m 33,0 km/h W-SW 8,9 C 4,1 C 18,4 km/h
10.01.2015 18:00 12,6 C 77 % 1018,1 hPa 0,0 l/m 22,7 km/h W-SW 8,7 C 5,9 C 12,6 km/h
10.01.2015 19:00 12,1 C 77 % 1017,7 hPa 0,0 l/m 18,1 km/h W 8,2 C 6,6 C 10,1 km/h
10.01.2015 20:00 12,0 C 78 % 1017,8 hPa 0,0 l/m 23,3 km/h W-SW 8,3 C 5,0 C 13,0 km/h
10.01.2015 21:00 11,9 C 78 % 1017,3 hPa 0,0 l/m 26,6 km/h W-SW 8,2 C 4,0 C 14,8 km/h
10.01.2015 22:00 11,6 C 80 % 1017,1 hPa 0,0 l/m 25,9 km/h W-SW 8,3 C 3,8 C 14,4 km/h
10.01.2015 23:00 11,3 C 82 % 1016,1 hPa 0,0 l/m 39,5 km/h W 8,3 C 0,9 C 22,0 km/h
11.01.2015 00:00 11,1 C 83 % 1015,1 hPa 0,0 l/m 18,8 km/h N-NO 8,3 C 5,1 C 10,4 km/h
11.01.2015 01:00 7,9 C 86 % 1015,7 hPa 3,1 l/m 17,5 km/h N-NO 5,7 C 1,5 C 9,7 km/h
11.01.2015 02:00 6,8 C 86 % 1016,2 hPa 4,7 l/m 0,0 km/h N 4,6 C 6,8 C 0,0 km/h
11.01.2015 03:00 5,1 C 86 % 1016,8 hPa 3,1 l/m 0,0 km/h O-SO 3,0 C 5,1 C 0,0 km/h
11.01.2015 04:00 4,5 C 87 % 1017,0 hPa 1,6 l/m 0,0 km/h W-NW 2,5 C 4,5 C 0,0 km/h
11.01.2015 05:00 3,8 C 87 % 1018,2 hPa 0,8 l/m 7,1 km/h S-SW 1,8 C 3,2 C 4,0 km/h
11.01.2015 06:00 3,5 C 86 % 1018,7 hPa 0,0 l/m 1,9 km/h W-SW 1,4 C 3,5 C 1,1 km/h
11.01.2015 07:00 3,5 C 85 % 1019,0 hPa 0,0 l/m 0,0 km/h SW 1,2 C 3,5 C 0,0 km/h
11.01.2015 08:00 3,3 C 86 % 1020,8 hPa 0,0 l/m 1,3 km/h W 1,2 C 3,3 C 0,7 km/h
11.01.2015 09:00 3,6 C 87 % 1022,4 hPa 0,0 l/m 7,8 km/h W 1,6 C 2,3 C 4,3 km/h
11.01.2015 10:00 4,0 C 86 % 1023,4 hPa 0,0 l/m 13,0 km/h W-SW 1,9 C -1,0 C 7,2 km/h
11.01.2015 11:00 5,5 C 84 % 1023,5 hPa 0,0 l/m 19,4 km/h W-SW 3,0 C -2,3 C 10,8 km/h
11.01.2015 12:00 6,6 C 80 % 1023,6 hPa 0,0 l/m 24,0 km/h SW 3,4 C -2,5 C 13,3 km/h
11.01.2015 13:00 5,9 C 77 % 1023,3 hPa 0,0 l/m 23,3 km/h W-NW 2,2 C -3,2 C 13,0 km/h
11.01.2015 14:00 6,8 C 74 % 1024,1 hPa 0,0 l/m 26,6 km/h W 2,5 C -3,0 C 14,8 km/h
11.01.2015 15:00 5,4 C 73 % 1025,1 hPa 0,0 l/m 16,2 km/h W-SW 1,0 C -1,0 C 9,0 km/h
11.01.2015 16:00 4,9 C 74 % 1025,7 hPa 0,0 l/m 21,4 km/h W-NW 0,7 C -3,8 C 11,9 km/h
11.01.2015 17:00 4,8 C 75 % 1026,0 hPa 0,0 l/m 18,1 km/h W-SW 0,8 C -2,6 C 10,1 km/h
11.01.2015 18:00 3,4 C 79 % 1026,7 hPa 0,0 l/m 5,8 km/h SW 0,1 C 3,4 C 3,2 km/h
11.01.2015 19:00 4,1 C 79 % 1027,4 hPa 0,0 l/m 6,5 km/h SW 0,8 C 4,0 C 3,6 km/h
11.01.2015 20:00 4,5 C 77 % 1028,1 hPa 0,0 l/m 7,8 km/h SW 0,8 C 3,2 C 4,3 km/h
11.01.2015 21:00 4,5 C 76 % 1028,2 hPa 0,8 l/m 20,1 km/h W 0,6 C -3,9 C 11,2 km/h
11.01.2015 22:00 4,3 C 77 % 1028,7 hPa 0,0 l/m 20,1 km/h W 0,6 C -4,1 C 11,2 km/h
11.01.2015 23:00 4,1 C 79 % 1028,6 hPa 0,0 l/m 18,1 km/h W-SW 0,8 C -3,5 C 10,1 km/h
Min-Datum _ 06.01.15 05.01.15 06.01.15 - 05.01.15 - 06.01.15 09.01.15 05.01.15
_ Min-Zeit 07:53 15:53 13:53 - 00:53 - 07:53 01:53 00:53
Minimum _ -5,0 C 51 % 994,0 hPa - 0,0 km/h - -6,8 C -8,1 C 0,0 km/h
Max-Datum _ 10.01.15 06.01.15 09.01.15 11.01.15 09.01.15 - 10.01.15 05.01.15 10.01.15
_ Max-Zeit 11:53 04:53 00:53 02:53 23:53 - 13:53 15:53 10:53
Maximum _ 15,9 C 88 % 1032,6 hPa 4,7 l/m 86,0 km/h
SW
- 11,3 C 12,3 C 31,3 km/h
W
Durchschnitt _ 5,7 C 81 % 1014,6 hPa #17,0 l/m 14,6 km/h W-SW 2,6 C 1,7 C 7,7 km/h
www.sexauwetter.de